createdAt,value
2022-09-02T00:04:52.704Z,85.00
2022-09-02T00:09:55.511Z,85.20
2022-09-02T00:14:58.403Z,85.20
2022-09-02T00:20:01.548Z,85.40
2022-09-02T00:25:04.826Z,85.50
2022-09-02T00:30:08.195Z,83.60
2022-09-02T00:35:12.047Z,83.50
2022-09-02T00:40:16.001Z,83.30
2022-09-02T00:45:21.439Z,83.00
2022-09-02T00:50:32.580Z,81.10
2022-09-02T00:55:45.030Z,81.20
2022-09-02T01:00:52.679Z,81.00
2022-09-02T01:05:57.502Z,80.10
2022-09-02T01:11:01.614Z,79.90
2022-09-02T01:16:10.946Z,78.20
2022-09-02T01:21:14.367Z,78.00
2022-09-02T01:26:17.323Z,77.20
2022-09-02T01:31:20.317Z,76.30
2022-09-02T01:36:23.199Z,75.80
2022-09-02T01:41:26.039Z,75.80
2022-09-02T01:46:28.896Z,75.40
2022-09-02T01:51:31.893Z,75.30
2022-09-02T01:56:35.330Z,74.80
2022-09-02T02:01:38.455Z,74.80
2022-09-02T02:06:48.867Z,75.00
2022-09-02T02:11:55.478Z,74.20
2022-09-02T02:16:58.555Z,74.40
2022-09-02T02:22:01.668Z,73.80
2022-09-02T02:27:05.001Z,73.50
2022-09-02T02:32:08.039Z,73.70
2022-09-02T02:37:13.102Z,74.00
2022-09-02T02:42:17.193Z,73.80
2022-09-02T02:47:20.238Z,74.00
2022-09-02T02:52:23.130Z,73.40
2022-09-02T02:57:26.004Z,73.90
2022-09-02T03:02:34.221Z,73.50
2022-09-02T03:07:37.428Z,73.20
2022-09-02T03:12:40.953Z,73.10
2022-09-02T03:17:45.483Z,72.90
2022-09-02T03:22:50.719Z,72.70
2022-09-02T03:27:54.231Z,72.30
2022-09-02T03:33:03.758Z,72.00
2022-09-02T03:38:09.201Z,71.90
2022-09-02T03:43:12.357Z,72.10
2022-09-02T03:48:15.774Z,72.30
2022-09-02T03:53:19.859Z,71.90
2022-09-02T03:58:23.962Z,72.10
2022-09-02T04:03:28.195Z,71.70
2022-09-02T04:08:31.274Z,71.50
2022-09-02T04:13:34.397Z,70.70
2022-09-02T04:18:37.830Z,71.10
2022-09-02T04:23:40.999Z,71.50
2022-09-02T04:28:44.193Z,71.50
2022-09-02T04:33:47.902Z,71.50
2022-09-02T04:38:51.104Z,71.40
2022-09-02T04:43:58.200Z,71.80
2022-09-02T04:49:01.077Z,71.60
2022-09-02T04:54:04.035Z,72.10
2022-09-02T04:59:07.361Z,71.80
2022-09-02T05:04:10.287Z,71.70
2022-09-02T05:09:13.455Z,72.00
2022-09-02T05:14:16.441Z,71.70
2022-09-02T05:19:21.776Z,71.80
2022-09-02T05:24:26.891Z,73.20
2022-09-02T05:29:29.781Z,74.60
2022-09-02T05:34:33.562Z,74.90
2022-09-02T05:39:36.560Z,75.30
2022-09-02T05:44:39.407Z,75.60
2022-09-02T05:49:42.501Z,75.20
2022-09-02T05:54:45.983Z,76.00
2022-09-02T05:59:52.406Z,75.90
2022-09-02T06:04:56.359Z,75.20
2022-09-02T06:09:59.204Z,75.70
2022-09-02T06:15:03.113Z,75.60
2022-09-02T06:20:06.625Z,74.00
2022-09-02T06:25:10.603Z,72.50
2022-09-02T06:30:13.751Z,71.80
2022-09-02T06:35:16.849Z,72.60
2022-09-02T06:40:19.975Z,71.70
2022-09-02T06:45:24.448Z,70.60
2022-09-02T06:50:27.265Z,68.80
2022-09-02T06:55:30.949Z,69.10
2022-09-02T07:00:35.818Z,69.30
2022-09-02T07:05:39.835Z,68.50
2022-09-02T07:10:42.776Z,69.00
2022-09-02T07:15:45.726Z,67.00
2022-09-02T07:20:48.609Z,67.00
2022-09-02T07:25:51.503Z,67.00
2022-09-02T07:30:59.655Z,66.80
2022-09-02T07:36:12.263Z,66.60
2022-09-02T07:41:15.792Z,67.10
2022-09-02T07:46:19.551Z,66.50
2022-09-02T07:51:23.125Z,66.80
2022-09-02T07:56:26.228Z,65.90
2022-09-02T08:01:30.408Z,66.20
2022-09-02T08:06:35.205Z,66.70
2022-09-02T08:11:41.215Z,66.00
2022-09-02T08:16:46.029Z,65.80
2022-09-02T08:21:49.004Z,65.60
2022-09-02T08:26:52.120Z,66.00
2022-09-02T08:31:55.035Z,65.70
2022-09-02T08:36:58.052Z,66.10
2022-09-02T08:42:40.125Z,65.20
2022-09-02T08:47:49.588Z,64.70
2022-09-02T08:53:13.411Z,65.50
2022-09-02T08:58:20.672Z,66.70
2022-09-02T09:03:42.035Z,65.60
2022-09-02T09:09:10.306Z,64.90
2022-09-02T09:14:24.948Z,65.60
2022-09-02T09:19:59.660Z,65.80
2022-09-02T09:25:07.676Z,65.60
2022-09-02T09:30:15.099Z,65.50
2022-09-02T09:35:19.712Z,65.60
2022-09-02T09:40:33.285Z,63.70
2022-09-02T09:45:37.712Z,64.60
2022-09-02T09:50:40.671Z,64.80
2022-09-02T09:56:08.018Z,64.70
2022-09-02T10:01:34.530Z,63.80
2022-09-02T10:06:44.883Z,62.00
2022-09-02T10:12:06.994Z,62.70
2022-09-02T10:17:31.327Z,62.70
2022-09-02T10:22:38.511Z,61.60
2022-09-02T10:28:24.292Z,60.70
2022-09-02T10:34:08.486Z,61.50
2022-09-02T10:39:17.205Z,61.90
2022-09-02T10:45:03.180Z,61.40
2022-09-02T10:50:21.010Z,61.60
2022-09-02T10:55:59.203Z,61.40
2022-09-02T11:01:03.359Z,60.90
2022-09-02T11:06:23.071Z,61.10
2022-09-02T11:11:41.239Z,61.20
2022-09-02T11:17:16.308Z,61.50
2022-09-02T11:22:40.787Z,61.50
2022-09-02T11:27:57.072Z,60.20
2022-09-02T11:33:15.783Z,59.80
2022-09-02T11:38:37.239Z,59.70
2022-09-02T11:44:11.328Z,59.40
2022-09-02T11:49:51.634Z,59.60
2022-09-02T11:55:28.180Z,58.90
2022-09-02T12:00:56.079Z,58.70
2022-09-02T12:06:13.946Z,58.40
2022-09-02T12:11:42.739Z,57.10
2022-09-02T12:17:04.473Z,56.50
2022-09-02T12:22:16.597Z,55.40
2022-09-02T12:27:37.358Z,55.70
2022-09-02T12:32:52.452Z,56.10
2022-09-02T12:38:23.298Z,55.60
2022-09-02T12:43:31.068Z,55.80
2022-09-02T12:48:45.975Z,54.80
2022-09-02T12:53:51.358Z,55.90
2022-09-02T12:59:00.160Z,56.10
2022-09-02T13:04:17.263Z,55.20
2022-09-02T13:09:47.535Z,55.50
2022-09-02T13:15:06.261Z,56.60
2022-09-02T13:20:33.482Z,56.20
2022-09-02T13:26:07.461Z,56.30
2022-09-02T13:31:28.243Z,56.00
2022-09-02T13:36:51.321Z,55.60
2022-09-02T13:41:55.299Z,55.90
2022-09-02T13:47:16.055Z,55.70
2022-09-02T13:53:01.124Z,56.70
2022-09-02T13:58:08.991Z,56.20
2022-09-02T14:03:18.234Z,57.10
2022-09-02T14:08:27.011Z,57.00
2022-09-02T14:13:30.455Z,57.00
2022-09-02T14:18:33.347Z,57.20
2022-09-02T14:23:40.777Z,57.70
2022-09-02T14:28:50.811Z,57.10
2022-09-02T14:33:53.739Z,57.80
2022-09-02T14:39:10.108Z,58.00
2022-09-02T14:44:22.520Z,57.60
2022-09-02T14:49:32.754Z,58.00
2022-09-02T14:54:45.350Z,57.30
2022-09-02T14:59:49.923Z,58.20
2022-09-02T15:04:55.436Z,57.80
2022-09-02T15:09:58.692Z,57.70
2022-09-02T15:15:01.616Z,57.70
2022-09-02T15:20:07.074Z,57.60
2022-09-02T15:25:14.529Z,57.40
2022-09-02T15:30:17.895Z,58.50
2022-09-02T15:35:20.766Z,59.00
2022-09-02T15:40:24.434Z,59.60
2022-09-02T15:45:28.375Z,59.70
2022-09-02T15:50:34.373Z,61.00
2022-09-02T15:55:37.508Z,60.70
2022-09-02T16:00:40.892Z,59.30
2022-09-02T16:05:47.036Z,58.70
2022-09-02T16:10:49.972Z,59.10
2022-09-02T16:16:02.201Z,60.30
2022-09-02T16:21:10.968Z,61.90
2022-09-02T16:26:15.061Z,63.00
2022-09-02T16:31:20.994Z,64.20
2022-09-02T16:36:26.835Z,65.30
2022-09-02T16:41:46.462Z,65.90
2022-09-02T16:46:51.646Z,66.70
2022-09-02T16:51:58.160Z,67.40
2022-09-02T16:57:01.972Z,67.90
2022-09-02T17:02:05.559Z,68.40
2022-09-02T17:07:09.632Z,69.30
2022-09-02T17:12:12.547Z,69.60
2022-09-02T17:17:17.242Z,70.10
2022-09-02T17:22:20.389Z,70.30
2022-09-02T17:27:23.540Z,70.70
2022-09-02T17:32:27.078Z,70.80
2022-09-02T17:37:31.868Z,71.20
2022-09-02T17:42:34.776Z,71.60
2022-09-02T17:47:38.515Z,71.80
2022-09-02T17:52:41.495Z,72.00
2022-09-02T17:58:15.032Z,72.00
2022-09-02T18:03:42.567Z,72.20
2022-09-02T18:09:02.591Z,72.60
2022-09-02T18:14:32.789Z,73.00
2022-09-02T18:20:09.328Z,73.10
2022-09-02T18:25:12.300Z,73.90
2022-09-02T18:30:33.669Z,74.70
2022-09-02T18:36:13.826Z,75.50
2022-09-02T18:42:10.385Z,76.10
2022-09-02T18:47:28.465Z,76.70
2022-09-02T18:52:32.382Z,77.70
2022-09-02T18:58:02.477Z,78.30
2022-09-02T19:03:06.497Z,79.20
2022-09-02T19:08:34.076Z,80.20
2022-09-02T19:14:02.096Z,80.80
2022-09-02T19:19:06.634Z,81.20
2022-09-02T19:24:15.323Z,81.60
2022-09-02T19:29:18.869Z,82.10
2022-09-02T19:34:35.711Z,82.50
2022-09-02T19:39:38.733Z,83.30
2022-09-02T19:44:41.789Z,83.80
2022-09-02T19:49:44.704Z,84.30
2022-09-02T19:54:47.765Z,84.80
2022-09-02T19:59:51.875Z,85.30
2022-09-02T20:04:54.716Z,85.30
2022-09-02T20:09:57.852Z,85.70
2022-09-02T20:15:00.929Z,86.70
2022-09-02T20:20:19.548Z,86.70
2022-09-02T20:25:36.219Z,87.10
2022-09-02T20:30:47.456Z,87.50
2022-09-02T20:36:26.134Z,87.90
2022-09-02T20:42:16.784Z,88.30
2022-09-02T20:47:25.030Z,88.50
2022-09-02T20:53:18.022Z,88.90
2022-09-02T20:59:00.425Z,89.30
2022-09-02T21:04:24.779Z,89.50
2022-09-02T21:09:59.394Z,89.80
2022-09-02T21:15:09.456Z,90.10
2022-09-02T21:20:46.148Z,90.20
2022-09-02T21:26:00.813Z,90.50
2022-09-02T21:31:31.861Z,90.60
2022-09-02T21:36:38.639Z,90.80
2022-09-02T21:41:49.418Z,91.00
2022-09-02T21:47:04.193Z,91.20
2022-09-02T21:52:22.523Z,91.60
2022-09-02T21:57:37.667Z,91.40
2022-09-02T22:02:50.254Z,91.50
2022-09-02T22:08:13.546Z,91.70
2022-09-02T22:13:17.927Z,91.90
2022-09-02T22:18:49.189Z,92.00
2022-09-02T22:23:55.904Z,92.10
2022-09-02T22:29:04.941Z,92.20
2022-09-02T22:34:08.740Z,92.30
2022-09-02T22:39:16.227Z,92.60
2022-09-02T22:45:06.079Z,93.00
2022-09-02T22:50:35.470Z,93.40
2022-09-02T22:56:04.002Z,93.70
2022-09-02T23:01:43.325Z,94.00
2022-09-02T23:06:47.920Z,94.00
2022-09-02T23:12:28.804Z,93.90
2022-09-02T23:18:10.576Z,93.90
2022-09-02T23:24:01.211Z,93.80
2022-09-02T23:29:26.778Z,94.00
2022-09-02T23:35:03.549Z,94.20
2022-09-02T23:40:22.279Z,94.40
2022-09-02T23:45:32.168Z,94.60
2022-09-02T23:51:16.227Z,94.70
2022-09-02T23:56:40.639Z,94.90
